| time (UTC) | temp C | wind direction | speed KPH | gust KPH | rain 1hr cm | rain 24hr cm | rain mn cm | humidity % | barometer mb |
| 20260505102052 | 13 | 0 | 0.0 | 0.0 | 0.41 | 0.51 | 0.51 | 91 | 1010.6 |
| 20260505101554 | 13 | 0 | 0.0 | 0.0 | 0.38 | 0.48 | 0.48 | 91 | 1010.6 |
| 20260505101052 | 13 | 0 | 0.0 | 0.0 | 0.41 | 0.46 | 0.46 | 91 | 1010.9 |
| 20260505100553 | 13 | 0 | 0.0 | 0.0 | 0.43 | 0.43 | 0.43 | 90 | 1011.0 |
| 20260505100058 | 13 | 0 | 0.0 | 0.0 | 0.33 | 0.33 | 0.33 | 90 | 1011.1 |
| 20260505095552 | 13 | 0 | 0.0 | 0.0 | 0.30 | 0.30 | 0.30 | 89 | 1011.0 |
| 20260505095053 | 13 | 0 | 0.0 | 0.0 | 0.25 | 0.25 | 0.25 | 89 | 1011.2 |
| 20260505094557 | 13 | 0 | 0.0 | 0.0 | 0.20 | 0.20 | 0.20 | 88 | 1010.9 |
| 20260505094052 | 14 | 0 | 0.0 | 0.0 | 0.18 | 0.18 | 0.18 | 87 | 1010.9 |
| 20260505093552 | 14 | 0 | 0.0 | 1.6 | 0.18 | 0.18 | 0.18 | 86 | 1011.1 |
| 20260505093054 | 14 | 0 | 0.0 | 1.6 | 0.15 | 0.15 | 0.15 | 85 | 1010.9 |
| 20260505092553 | 15 | 0 | 0.0 | 1.6 | 0.13 | 0.13 | 0.13 | 84 | 1010.6 |
| 20260505092052 | 15 | 0 | 0.0 | 1.6 | 0.10 | 0.10 | 0.10 | 81 | 1010.2 |
| 20260505091619 | 16 | 0 | 0.0 | 1.6 | 0.10 | 0.10 | 0.10 | 78 | 1010.1 |
| 20260505091052 | 16 | 0 | 0.0 | 0.0 | 0.05 | 0.05 | 0.05 | 74 | 1009.9 |
| 20260505090552 | 16 | 0 | 0.0 | 1.6 | 0.00 | 0.00 | 0.00 | 69 | 1009.7 |
| 20260505090124 | 16 | 0 | 0.0 | 1.6 | 0.00 | 0.00 | 0.00 | 68 | 1009.6 |
| 20260505085553 | 16 | 0 | 0.0 | 0.0 | 0.00 | 0.00 | 0.00 | 67 | 1009.4 |
| 20260505085053 | 16 | 0 | 0.0 | 0.0 | 0.00 | 0.00 | 0.00 | 67 | 1009.2 |
| 20260505084613 | 16 | 0 | 0.0 | 0.0 | 0.00 | 0.00 | 0.00 | 67 | 1009.1 |
| 20260505084052 | 16 | 0 | 0.0 | 1.6 | 0.00 | 0.00 | 0.00 | 67 | 1009.1 |
| 20260505083555 | 16 | 0 | 0.0 | 1.6 | 0.00 | 0.00 | 0.00 | 67 | 1009.0 |
| 20260505083107 | 16 | 0 | 0.0 | 0.0 | 0.00 | 0.00 | 0.00 | 67 | 1008.9 |
| 20260505082552 | 16 | 0 | 0.0 | 0.0 | 0.00 | 0.00 | 0.00 | 67 | 1008.8 |
| 20260505082052 | 16 | 0 | 0.0 | 0.0 | 0.00 | 0.00 | 0.00 | 67 | 1008.7 |
| 20260505081601 | 16 | 0 | 0.0 | 0.0 | 0.00 | 0.00 | 0.00 | 66 | 1008.7 |
| 20260505081052 | 16 | 0 | 0.0 | 1.6 | 0.00 | 0.00 | 0.00 | 66 | 1008.5 |
| 20260505080552 | 17 | 0 | 0.0 | 1.6 | 0.00 | 0.00 | 0.00 | 66 | 1008.4 |
| 20260505080105 | 17 | 0 | 0.0 | 0.0 | 0.00 | 0.00 | 0.00 | 65 | 1008.3 |
| 20260505075552 | 17 | 0 | 0.0 | 0.0 | 0.00 | 0.00 | 0.00 | 65 | 1008.5 |
| 20260505075053 | 17 | 0 | 0.0 | 0.0 | 0.00 | 0.00 | 0.00 | 64 | 1008.6 |
| 20260505074603 | 17 | 0 | 0.0 | 3.2 | 0.00 | 0.00 | 0.00 | 65 | 1008.6 |
| 20260505074053 | 17 | 0 | 0.0 | 3.2 | 0.00 | 0.00 | 0.00 | 64 | 1008.5 |
| 20260505073553 | 17 | 0 | 0.0 | 3.2 | 0.00 | 0.00 | 0.00 | 64 | 1008.5 |
| 20260505073101 | 17 | 156 | 0.0 | 3.2 | 0.00 | 0.00 | 0.00 | 64 | 1008.4 |
| 20260505072556 | 17 | 0 | 0.0 | 3.2 | 0.00 | 0.00 | 0.00 | 64 | 1008.3 |
| 20260505072054 | 17 | 0 | 0.0 | 1.6 | 0.00 | 0.00 | 0.00 | 64 | 1008.1 |
| 20260505071613 | 17 | 0 | 0.0 | 3.2 | 0.00 | 0.00 | 0.00 | 64 | 1008.1 |
| 20260505071056 | 17 | 0 | 0.0 | 3.2 | 0.00 | 0.00 | 0.00 | 63 | 1008.0 |
| 20260505070553 | 17 | 0 | 0.0 | 4.8 | 0.00 | 0.00 | 0.00 | 63 | 1008.1 |
| 20260505070059 | 17 | 0 | 0.0 | 14.5 | 0.00 | 0.00 | 0.00 | 63 | 1008.1 |
| 20260505065552 | 17 | 75 | 0.0 | 14.5 | 0.00 | 0.00 | 0.00 | 63 | 1008.1 |
| 20260505065051 | 17 | 0 | 1.6 | 14.5 | 0.00 | 0.00 | 0.00 | 63 | 1008.2 |
| 20260505064605 | 17 | 0 | 0.0 | 1.6 | 0.00 | 0.00 | 0.00 | 64 | 1008.2 |
| 20260505064055 | 17 | 217 | 0.0 | 1.6 | 0.00 | 0.00 | 0.00 | 64 | 1008.1 |
| 20260505063555 | 17 | 221 | 0.0 | 6.4 | 0.00 | 0.00 | 0.00 | 63 | 1008.2 |
| 20260505063100 | 17 | 200 | 0.0 | 6.4 | 0.00 | 0.00 | 0.00 | 63 | 1008.2 |
| 20260505062553 | 17 | 9 | 0.0 | 4.8 | 0.00 | 0.00 | 0.00 | 62 | 1008.1 |
| 20260505062051 | 17 | 49 | 0.0 | 6.4 | 0.00 | 0.00 | 0.00 | 63 | 1008.2 |
| 20260505061609 | 17 | 0 | 0.0 | 6.4 | 0.00 | 0.00 | 0.00 | 63 | 1008.3 |
| 20260505061052 | 17 | 30 | 0.0 | 4.8 | 0.00 | 0.00 | 0.00 | 63 | 1008.1 |
| 20260505060552 | 18 | 56 | 0.0 | 8.0 | 0.00 | 0.00 | 0.00 | 62 | 1008.2 |
| 20260505060105 | 18 | 122 | 1.6 | 8.0 | 0.00 | 0.00 | 0.00 | 62 | 1008.1 |
| 20260505055552 | 18 | 77 | 0.0 | 4.8 | 0.00 | 0.00 | 0.00 | 62 | 1008.0 |
| 20260505055055 | 18 | 239 | 0.0 | 4.8 | 0.00 | 0.00 | 0.00 | 61 | 1007.8 |
| 20260505054556 | 18 | 0 | 0.0 | 4.8 | 0.00 | 0.00 | 0.00 | 60 | 1007.8 |
| 20260505054052 | 18 | 219 | 0.0 | 4.8 | 0.00 | 0.00 | 0.00 | 60 | 1007.6 |
| 20260505053552 | 18 | 301 | 0.0 | 11.3 | 0.00 | 0.00 | 0.00 | 60 | 1007.7 |
| 20260505053100 | 18 | 0 | 0.0 | 11.3 | 0.00 | 0.00 | 0.00 | 60 | 1007.6 |
| 20260505052553 | 18 | 0 | 1.6 | 11.3 | 0.00 | 0.00 | 0.00 | 60 | 1007.5 |
| 20260505052052 | 18 | 165 | 0.0 | 3.2 | 0.00 | 0.00 | 0.00 | 60 | 1007.5 |
| 20260505051558 | 18 | 126 | 0.0 | 3.2 | 0.00 | 0.00 | 0.00 | 60 | 1007.5 |
| 20260505051053 | 18 | 121 | 0.0 | 1.6 | 0.00 | 0.00 | 0.00 | 61 | 1007.5 |
| 20260505050553 | 18 | 76 | 0.0 | 3.2 | 0.00 | 0.00 | 0.00 | 61 | 1007.6 |
| 20260505041606 | 18 | 226 | 0.0 | 4.8 | 0.00 | 0.00 | 0.00 | 62 | 1008.1 |
| 20260505041052 | 18 | 248 | 0.0 | 6.4 | 0.00 | 0.00 | 0.00 | 62 | 1008.2 |
| 20260505040552 | 18 | 20 | 0.0 | 6.4 | 0.00 | 0.00 | 0.00 | 62 | 1008.1 |
| 20260505040110 | 18 | 0 | 1.6 | 6.4 | 0.00 | 0.00 | 0.00 | 62 | 1008.2 |
| 20260505035552 | 18 | 210 | 0.0 | 4.8 | 0.00 | 0.00 | 0.00 | 62 | 1008.3 |
| 20260505035052 | 18 | 0 | 0.0 | 4.8 | 0.00 | 0.00 | 0.00 | 63 | 1008.3 |
| 20260505034601 | 18 | 0 | 0.0 | 3.2 | 0.00 | 0.00 | 0.00 | 64 | 1008.3 |
| 20260505034052 | 18 | 0 | 0.0 | 3.2 | 0.00 | 0.00 | 0.00 | 63 | 1008.3 |
| 20260505033552 | 18 | 0 | 0.0 | 3.2 | 0.00 | 0.00 | 0.00 | 64 | 1008.3 |
| 20260505033100 | 18 | 15 | 0.0 | 4.8 | 0.00 | 0.00 | 0.00 | 62 | 1008.3 |
| 20260505032551 | 18 | 0 | 0.0 | 4.8 | 0.00 | 0.00 | 0.00 | 62 | 1008.2 |
| 20260505032052 | 18 | 274 | 0.0 | 1.6 | 0.00 | 0.00 | 0.00 | 62 | 1008.2 |
| 20260505031553 | 18 | 0 | 0.0 | 1.6 | 0.00 | 0.00 | 0.00 | 62 | 1008.2 |
| 20260505031052 | 18 | 0 | 0.0 | 1.6 | 0.00 | 0.00 | 0.00 | 63 | 1008.2 |
| 20260505030554 | 18 | 0 | 0.0 | 4.8 | 0.00 | 0.00 | 0.00 | 63 | 1008.2 |
| 20260505030110 | 18 | 0 | 0.0 | 4.8 | 0.00 | 0.00 | 0.00 | 62 | 1008.1 |
| 20260505025553 | 18 | 0 | 0.0 | 4.8 | 0.00 | 0.00 | 0.00 | 62 | 1008.1 |
| 20260505025051 | 18 | 0 | 0.0 | 4.8 | 0.00 | 0.00 | 0.00 | 62 | 1008.0 |
| 20260505024559 | 18 | 221 | 0.0 | 3.2 | 0.00 | 0.00 | 0.00 | 62 | 1007.8 |
| 20260505024052 | 18 | 264 | 0.0 | 3.2 | 0.00 | 0.00 | 0.00 | 62 | 1007.8 |
| 20260505023552 | 19 | 0 | 0.0 | 6.4 | 0.00 | 0.00 | 0.00 | 62 | 1007.8 |
| 20260505023055 | 19 | 0 | 1.6 | 6.4 | 0.00 | 0.00 | 0.00 | 61 | 1007.8 |
| 20260505022552 | 18 | 0 | 0.0 | 4.8 | 0.00 | 0.00 | 0.00 | 62 | 1007.8 |
| 20260505022054 | 18 | 63 | 0.0 | 4.8 | 0.00 | 0.00 | 0.00 | 62 | 1007.6 |
| 20260505021553 | 18 | 0 | 0.0 | 4.8 | 0.00 | 0.00 | 0.00 | 62 | 1007.5 |
| 20260505021051 | 18 | 0 | 0.0 | 4.8 | 0.00 | 0.00 | 0.00 | 62 | 1007.5 |
| 20260505020552 | 18 | 53 | 0.0 | 3.2 | 0.00 | 0.00 | 0.00 | 62 | 1007.4 |
| 20260505020054 | 19 | 0 | 0.0 | 3.2 | 0.00 | 0.00 | 0.00 | 62 | 1007.4 |
| 20260505015551 | 19 | 0 | 0.0 | 3.2 | 0.00 | 0.00 | 0.00 | 62 | 1007.2 |
| 20260505015052 | 19 | 0 | 0.0 | 1.6 | 0.00 | 0.00 | 0.00 | 63 | 1007.1 |
| 20260505014610 | 19 | 0 | 0.0 | 1.6 | 0.00 | 0.00 | 0.00 | 61 | 1007.1 |
| 20260505014055 | 19 | 0 | 0.0 | 1.6 | 0.00 | 0.00 | 0.00 | 61 | 1006.9 |
| 20260505013552 | 19 | 0 | 0.0 | 1.6 | 0.00 | 0.00 | 0.00 | 61 | 1007.0 |
| 20260505013056 | 19 | 0 | 0.0 | 1.6 | 0.00 | 0.00 | 0.00 | 61 | 1007.0 |
| 20260505012550 | 19 | 0 | 0.0 | 1.6 | 0.00 | 0.00 | 0.00 | 61 | 1007.0 |
| 20260505012052 | 19 | 0 | 0.0 | 1.6 | 0.00 | 0.00 | 0.00 | 61 | 1006.9 |
| 20260505011557 | 19 | 0 | 0.0 | 1.6 | 0.00 | 0.00 | 0.00 | 61 | 1006.9 |
| 20260505011054 | 19 | 0 | 0.0 | 1.6 | 0.00 | 0.00 | 0.00 | 61 | 1006.9 |
| 20260505010551 | 19 | 0 | 0.0 | 1.6 | 0.00 | 0.00 | 0.00 | 60 | 1006.8 |
| 20260505005556 | 20 | 55 | 0.0 | 1.6 | 0.00 | 0.00 | 0.00 | 60 | 1006.8 |
| 20260505005053 | 20 | 0 | 0.0 | 1.6 | 0.00 | 0.00 | 0.00 | 59 | 1006.8 |
| 20260505004557 | 20 | 0 | 0.0 | 1.6 | 0.00 | 0.00 | 0.00 | 58 | 1006.9 |
| 20260505004056 | 20 | 0 | 0.0 | 1.6 | 0.00 | 0.00 | 0.00 | 58 | 1006.9 |
| 20260505003554 | 20 | 0 | 0.0 | 3.2 | 0.00 | 0.00 | 0.00 | 57 | 1006.8 |
| 20260505003100 | 20 | 0 | 0.0 | 3.2 | 0.00 | 0.00 | 0.00 | 57 | 1006.8 |
| 20260505002550 | 20 | 0 | 0.0 | 1.6 | 0.00 | 0.00 | 0.00 | 57 | 1006.8 |
| 20260505002050 | 21 | 0 | 0.0 | 4.8 | 0.00 | 0.00 | 0.00 | 57 | 1006.9 |
| 20260505001558 | 21 | 59 | 0.0 | 4.8 | 0.00 | 0.00 | 0.00 | 56 | 1006.9 |
| 20260505001051 | 21 | 191 | 0.0 | 4.8 | 0.00 | 0.00 | 0.00 | 56 | 1006.9 |
| 20260505000552 | 21 | 0 | 0.0 | 0.0 | 0.00 | 0.00 | 0.00 | 56 | 1007.0 |
| 20260505000058 | 21 | 0 | 0.0 | 3.2 | 0.00 | 0.00 | 0.00 | 55 | 1007.0 |
| 20260504235552 | 21 | 0 | 0.0 | 3.2 | 0.00 | 0.00 | 0.00 | 55 | 1007.1 |
| 20260504235051 | 21 | 55 | 0.0 | 3.2 | 0.00 | 0.00 | 0.00 | 54 | 1007.1 |
| 20260504234552 | 21 | 0 | 0.0 | 3.2 | 0.00 | 0.00 | 0.00 | 54 | 1007.1 |
| 20260504234051 | 21 | 0 | 0.0 | 3.2 | 0.00 | 0.00 | 0.00 | 53 | 1007.2 |
| 20260504233551 | 21 | 0 | 0.0 | 3.2 | 0.00 | 0.00 | 0.00 | 54 | 1007.4 |
| 20260504233059 | 21 | 170 | 0.0 | 6.4 | 0.00 | 0.00 | 0.00 | 54 | 1007.4 |
| 20260504232552 | 21 | 0 | 0.0 | 6.4 | 0.00 | 0.00 | 0.00 | 54 | 1007.4 |
| 20260504232053 | 22 | 359 | 0.0 | 6.4 | 0.00 | 0.00 | 0.00 | 53 | 1007.5 |
| 20260504231558 | 22 | 0 | 0.0 | 4.8 | 0.00 | 0.00 | 0.00 | 52 | 1007.6 |
| 20260504231053 | 22 | 37 | 0.0 | 3.2 | 0.00 | 0.00 | 0.00 | 51 | 1007.7 |
| 20260504230557 | 22 | 210 | 0.0 | 3.2 | 0.00 | 0.00 | 0.00 | 51 | 1007.7 |
| 20260504230054 | 22 | 206 | 0.0 | 8.0 | 0.00 | 0.00 | 0.00 | 50 | 1007.8 |
| 20260504225552 | 22 | 0 | 0.0 | 8.0 | 0.00 | 0.00 | 0.00 | 49 | 1007.8 |
| 20260504225051 | 22 | 0 | 3.2 | 8.0 | 0.00 | 0.00 | 0.00 | 48 | 1007.8 |
| 20260504224557 | 22 | 243 | 3.2 | 8.0 | 0.00 | 0.00 | 0.00 | 46 | 1007.8 |
| 20260504224056 | 22 | 223 | 3.2 | 6.4 | 0.00 | 0.00 | 0.00 | 48 | 1007.9 |
| 20260504223554 | 22 | 136 | 0.0 | 3.2 | 0.00 | 0.00 | 0.00 | 50 | 1007.7 |
| 20260504223107 | 22 | 250 | 0.0 | 6.4 | 0.00 | 0.00 | 0.00 | 52 | 1007.9 |
| 20260504222552 | 22 | 232 | 0.0 | 6.4 | 0.00 | 0.00 | 0.00 | 51 | 1007.9 |
| 20260504222051 | 22 | 198 | 0.0 | 9.7 | 0.00 | 0.00 | 0.00 | 51 | 1007.8 |
| 20260504221558 | 22 | 65 | 0.0 | 9.7 | 0.00 | 0.00 | 0.00 | 49 | 1007.9 |
| 20260504221051 | 23 | 221 | 1.6 | 9.7 | 0.00 | 0.00 | 0.00 | 51 | 1007.9 |
| 20260504220551 | 23 | 208 | 1.6 | 9.7 | 0.00 | 0.00 | 0.00 | 52 | 1007.9 |
| 20260504215555 | 23 | 0 | 0.0 | 4.8 | 0.00 | 0.00 | 0.00 | 53 | 1007.8 |
| 20260504215050 | 23 | 0 | 0.0 | 1.6 | 0.00 | 0.00 | 0.00 | 53 | 1008.0 |
| 20260504214601 | 23 | 0 | 0.0 | 1.6 | 0.00 | 0.00 | 0.00 | 53 | 1008.1 |
| 20260504214057 | 23 | 0 | 0.0 | 1.6 | 0.00 | 0.00 | 0.00 | 54 | 1008.1 |
| 20260504213552 | 23 | 352 | 0.0 | 3.2 | 0.00 | 0.00 | 0.00 | 52 | 1008.1 |
| 20260504213109 | 23 | 0 | 0.0 | 3.2 | 0.00 | 0.00 | 0.00 | 50 | 1008.2 |
| 20260504212552 | 24 | 222 | 0.0 | 3.2 | 0.00 | 0.00 | 0.00 | 47 | 1008.2 |
| 20260504212052 | 25 | 0 | 0.0 | 3.2 | 0.00 | 0.00 | 0.00 | 53 | 1008.5 |
| 20260504211651 | 25 | 150 | 0.0 | 3.2 | 0.00 | 0.00 | 0.00 | 48 | 1008.5 |
| 20260504211051 | 25 | 165 | 0.0 | 3.2 | 0.00 | 0.00 | 0.00 | 48 | 1008.6 |
| 20260504210551 | 25 | 193 | 0.0 | 1.6 | 0.00 | 0.00 | 0.00 | 48 | 1008.7 |
| 20260504210056 | 24 | 157 | 0.0 | 1.6 | 0.00 | 0.00 | 0.00 | 48 | 1008.8 |
| 20260504205554 | 25 | 0 | 0.0 | 3.2 | 0.00 | 0.00 | 0.00 | 49 | 1008.7 |
| 20260504205051 | 25 | 212 | 0.0 | 3.2 | 0.00 | 0.00 | 0.00 | 46 | 1008.8 |
| 20260504204553 | 25 | 219 | 1.6 | 3.2 | 0.00 | 0.00 | 0.00 | 48 | 1008.7 |
| 20260504204053 | 24 | 213 | 1.6 | 3.2 | 0.00 | 0.00 | 0.00 | 49 | 1008.8 |
| 20260504203552 | 24 | 155 | 1.6 | 3.2 | 0.00 | 0.00 | 0.00 | 46 | 1009.0 |
| 20260504203057 | 24 | 284 | 0.0 | 3.2 | 0.00 | 0.00 | 0.00 | 49 | 1008.9 |
| 20260504202553 | 24 | 155 | 1.6 | 8.0 | 0.00 | 0.00 | 0.00 | 51 | 1009.1 |
| 20260504202054 | 23 | 195 | 1.6 | 8.0 | 0.00 | 0.00 | 0.00 | 56 | 1009.1 |
| 20260504201601 | 23 | 56 | 0.0 | 4.8 | 0.00 | 0.00 | 0.00 | 57 | 1009.1 |
| 20260504201052 | 23 | 218 | 0.0 | 3.2 | 0.00 | 0.00 | 0.00 | 54 | 1009.2 |
| 20260504200552 | 23 | 204 | 0.0 | 3.2 | 0.00 | 0.00 | 0.00 | 58 | 1009.4 |
| 20260504200055 | 23 | 283 | 0.0 | 4.8 | 0.00 | 0.00 | 0.00 | 54 | 1009.4 |
| 20260504195551 | 23 | 210 | 1.6 | 4.8 | 0.00 | 0.00 | 0.00 | 54 | 1009.4 |
| 20260504195051 | 23 | 292 | 0.0 | 4.8 | 0.00 | 0.00 | 0.00 | 55 | 1009.6 |
| 20260504194559 | 23 | 260 | 1.6 | 4.8 | 0.00 | 0.00 | 0.00 | 54 | 1009.6 |
| 20260504194051 | 23 | 8 | 1.6 | 4.8 | 0.00 | 0.00 | 0.00 | 54 | 1009.7 |
| 20260504193553 | 23 | 0 | 1.6 | 6.4 | 0.00 | 0.00 | 0.00 | 52 | 1009.7 |
| 20260504193109 | 23 | 161 | 0.0 | 6.4 | 0.00 | 0.00 | 0.00 | 56 | 1009.8 |
| 20260504192551 | 23 | 219 | 1.6 | 6.4 | 0.00 | 0.00 | 0.00 | 53 | 1009.9 |
| 20260504192054 | 23 | 127 | 1.6 | 6.4 | 0.00 | 0.00 | 0.00 | 56 | 1010.0 |
| 20260504191610 | 22 | 191 | 0.0 | 3.2 | 0.00 | 0.00 | 0.00 | 58 | 1010.1 |
| 20260504191052 | 22 | 0 | 0.0 | 4.8 | 0.00 | 0.00 | 0.00 | 59 | 1010.0 |
| 20260504190553 | 22 | 0 | 0.0 | 4.8 | 0.00 | 0.00 | 0.00 | 59 | 1010.1 |
| 20260504190107 | 22 | 203 | 0.0 | 6.4 | 0.00 | 0.00 | 0.00 | 63 | 1010.2 |
| 20260504185551 | 21 | 162 | 1.6 | 6.4 | 0.00 | 0.00 | 0.00 | 60 | 1010.3 |
| 20260504185053 | 21 | 0 | 1.6 | 4.8 | 0.00 | 0.00 | 0.00 | 62 | 1010.3 |
| 20260504184556 | 20 | 0 | 0.0 | 3.2 | 0.00 | 0.00 | 0.00 | 65 | 1010.4 |
| 20260504184054 | 20 | 32 | 0.0 | 3.2 | 0.00 | 0.00 | 0.00 | 64 | 1010.3 |
| 20260504183553 | 20 | 36 | 0.0 | 8.0 | 0.00 | 0.00 | 0.00 | 64 | 1010.4 |
| 20260504183053 | 20 | 120 | 0.0 | 8.0 | 0.00 | 0.00 | 0.00 | 62 | 1010.5 |
| 20260504182551 | 20 | 226 | 0.0 | 12.9 | 0.00 | 0.00 | 0.00 | 65 | 1010.4 |
| 20260504182051 | 21 | 0 | 1.6 | 12.9 | 0.00 | 0.00 | 0.00 | 63 | 1010.3 |
| 20260504181603 | 21 | 212 | 1.6 | 8.0 | 0.00 | 0.00 | 0.00 | 62 | 1010.2 |
| 20260504181051 | 21 | 348 | 0.0 | 4.8 | 0.00 | 0.00 | 0.00 | 63 | 1010.3 |
| 20260504180555 | 20 | 60 | 1.6 | 4.8 | 0.00 | 0.00 | 0.00 | 63 | 1010.1 |
| 20260504175554 | 21 | 139 | 0.0 | 6.4 | 0.00 | 0.00 | 0.00 | 57 | 1010.1 |
| 20260504175052 | 21 | 155 | 0.0 | 6.4 | 0.00 | 0.00 | 0.00 | 60 | 1010.2 |
| 20260504174602 | 21 | 204 | 1.6 | 6.4 | 0.00 | 0.00 | 0.00 | 57 | 1010.0 |
| 20260504174052 | 21 | 200 | 1.6 | 11.3 | 0.00 | 0.00 | 0.00 | 58 | 1009.9 |
| 20260504173551 | 21 | 126 | 1.6 | 11.3 | 0.00 | 0.00 | 0.00 | 58 | 1009.8 |
| 20260504173100 | 21 | 201 | 1.6 | 11.3 | 0.00 | 0.00 | 0.00 | 59 | 1009.9 |
| 20260504172551 | 21 | 176 | 0.0 | 6.4 | 0.00 | 0.00 | 0.00 | 58 | 1009.9 |
| 20260504172055 | 21 | 174 | 1.6 | 6.4 | 0.00 | 0.00 | 0.00 | 59 | 1010.0 |
| 20260504171558 | 21 | 224 | 1.6 | 6.4 | 0.00 | 0.00 | 0.00 | 62 | 1009.9 |
| 20260504171056 | 20 | 144 | 1.6 | 4.8 | 0.00 | 0.00 | 0.00 | 62 | 1010.0 |
| 20260504170558 | 20 | 0 | 0.0 | 6.4 | 0.00 | 0.00 | 0.00 | 63 | 1010.0 |
| 20260504151057 | 17 | 0 | 0.0 | 3.2 | 0.00 | 0.00 | 0.00 | 67 | 1010.6 |
| 20260504150554 | 17 | 217 | 0.0 | 3.2 | 0.00 | 0.00 | 0.00 | 67 | 1010.8 |
| 20260504141053 | 16 | 30 | 0.0 | 3.2 | 0.00 | 0.00 | 0.00 | 67 | 1010.5 |
| 20260504140553 | 16 | 0 | 0.0 | 3.2 | 0.00 | 0.00 | 0.00 | 64 | 1010.7 |
| 20260504140105 | 16 | 231 | 1.6 | 3.2 | 0.00 | 0.00 | 0.00 | 65 | 1010.7 |
| 20260504130553 | 13 | 68 | 0.0 | 4.8 | 0.00 | 0.00 | 0.00 | 72 | 1011.0 |
| 20260504120103 | 12 | 0 | 0.0 | 4.8 | 0.00 | 0.00 | 0.00 | 72 | 1011.3 |
| 20260504110553 | 11 | 0 | 0.0 | 3.2 | 0.00 | 0.00 | 0.00 | 68 | 1010.9 |